Time;durP1;ratioP1;P1;durP2;ratioP2;P2;SDS_P1;SDS_P2;PMS_P1;PMS_P2;Temp;Humidity;BMP_temperature;BMP_pressure;BME280_temperature;BME280_humidity;BME280_pressure;Samples;Min_cycle;Max_cycle;Signal;HPM_P1;HPM_P2
2021/06/07 00:01:47;;;;;;;4.03;2.97;;;12.50;99.90;;;;;;4989499;28;20038;-84
2021/06/07 00:04:13;;;;;;;6.10;2.70;;;12.50;99.90;;;;;;5021788;28;20034;-82
2021/06/07 00:06:39;;;;;;;3.42;2.65;;;12.50;99.90;;;;;;4988952;28;20057;-83
2021/06/07 00:09:07;;;;;;;5.82;3.95;;;12.50;99.90;;;;;;5005143;28;20054;-84
2021/06/07 00:11:34;;;;;;;3.92;2.85;;;12.40;99.90;;;;;;5021740;28;20034;-83
2021/06/07 00:14:02;;;;;;;4.15;3.30;;;12.40;99.90;;;;;;5006558;28;20034;-84
2021/06/07 00:16:28;;;;;;;5.10;4.18;;;12.40;99.90;;;;;;5021319;28;20054;-84
2021/06/07 00:18:54;;;;;;;6.72;4.32;;;12.40;99.90;;;;;;5021593;28;20031;-84
2021/06/07 00:21:23;;;;;;;6.57;5.30;;;12.40;99.90;;;;;;5021476;28;20038;-84
2021/06/07 00:23:50;;;;;;;6.28;5.20;;;12.40;99.90;;;;;;5005172;28;20061;-84
2021/06/07 00:26:17;;;;;;;8.85;5.03;;;12.40;99.90;;;;;;5004937;28;20034;-83
2021/06/07 00:28:42;;;;;;;7.90;5.18;;;12.40;99.90;;;;;;5005009;28;20067;-84
2021/06/07 00:31:09;;;;;;;6.97;4.82;;;12.40;99.90;;;;;;5005134;28;20027;-84
2021/06/07 00:33:36;;;;;;;5.10;4.18;;;12.40;99.90;;;;;;5009190;28;20040;-84
2021/06/07 00:36:03;;;;;;;3.85;3.22;;;12.40;99.90;;;;;;5009992;28;20046;-84
2021/06/07 00:38:29;;;;;;;4.60;3.15;;;12.30;99.90;;;;;;5010303;28;20030;-83
2021/06/07 00:40:59;;;;;;;6.97;3.70;;;12.30;99.90;;;;;;5010120;28;20498;-84
2021/06/07 00:43:25;;;;;;;4.35;3.50;;;12.20;99.90;;;;;;5010350;28;20094;-84
2021/06/07 00:45:51;;;;;;;3.88;3.30;;;12.20;99.90;;;;;;5010139;28;20107;-84
2021/06/07 00:48:18;;;;;;;6.15;3.72;;;12.20;99.90;;;;;;5010034;28;20030;-83
2021/06/07 00:50:55;;;;;;;5.20;2.90;;;12.20;99.90;;;;;;5009720;28;20081;-82
2021/06/07 00:53:21;;;;;;;3.90;2.38;;;12.20;99.90;;;;;;5008761;28;20026;-84
2021/06/07 00:55:59;;;;;;;3.38;2.65;;;12.10;99.90;;;;;;4992420;28;20204;-84
2021/06/07 00:58:37;;;;;;;4.43;2.13;;;12.10;99.90;;;;;;5010052;28;20026;-84
2021/06/07 01:01:05;;;;;;;4.03;1.98;;;12.10;99.90;;;;;;5009879;28;20034;-84
2021/06/07 01:03:32;;;;;;;4.35;2.97;;;12.10;99.90;;;;;;5008590;28;20128;-82
2021/06/07 01:05:58;;;;;;;6.10;3.33;;;12.00;99.90;;;;;;5009534;28;20124;-83
2021/06/07 01:08:24;;;;;;;5.47;2.40;;;12.00;99.90;;;;;;5024701;28;20038;-83
2021/06/07 01:10:51;;;;;;;3.95;2.70;;;12.00;99.90;;;;;;5008898;28;20041;-83
2021/06/07 01:13:18;;;;;;;7.00;3.85;;;11.90;99.90;;;;;;5010198;28;20057;-84
2021/06/07 01:15:46;;;;;;;4.43;2.97;;;11.90;99.90;;;;;;5009798;28;20046;-83
2021/06/07 01:18:14;;;;;;;5.55;4.57;;;11.90;99.90;;;;;;5008533;28;20034;-83
2021/06/07 01:20:40;;;;;;;3.83;2.58;;;11.90;99.90;;;;;;5008552;28;20054;-84
2021/06/07 01:23:06;;;;;;;4.70;2.65;;;11.80;99.90;;;;;;5024764;28;20395;-84
2021/06/07 01:25:39;;;;;;;5.95;3.88;;;11.80;99.90;;;;;;5009371;28;20168;-82
2021/06/07 01:28:06;;;;;;;3.95;3.25;;;11.80;99.90;;;;;;5009407;28;20289;-84
2021/06/07 01:30:43;;;;;;;3.83;3.15;;;11.80;99.90;;;;;;5009302;28;20113;-84
2021/06/07 01:33:11;;;;;;;5.13;3.08;;;11.70;99.90;;;;;;5010356;28;20023;-85
2021/06/07 01:35:38;;;;;;;3.80;2.83;;;11.70;99.90;;;;;;5009110;28;20043;-82
2021/06/07 01:38:04;;;;;;;5.78;3.25;;;11.70;99.90;;;;;;5011391;28;20034;-84
2021/06/07 01:40:37;;;;;;;6.18;3.15;;;11.60;99.90;;;;;;5008753;28;20054;-86
2021/06/07 01:43:04;;;;;;;3.22;2.50;;;11.60;99.90;;;;;;5009350;28;20045;-84
2021/06/07 01:45:31;;;;;;;5.28;3.80;;;11.60;99.90;;;;;;5009409;28;20030;-85
2021/06/07 01:48:00;;;;;;;5.78;3.92;;;11.60;99.90;;;;;;4995773;23;20030;-84
2021/06/07 01:50:26;;;;;;;5.07;3.42;;;11.60;99.90;;;;;;4969481;29;20078;-84
2021/06/07 01:52:52;;;;;;;3.38;2.20;;;11.60;99.90;;;;;;4985371;28;20038;-84
2021/06/07 01:55:20;;;;;;;6.13;3.25;;;11.50;99.90;;;;;;4969284;29;20027;-84
2021/06/07 01:57:46;;;;;;;4.93;2.70;;;11.50;99.90;;;;;;4970284;29;20047;-84
2021/06/07 02:00:52;;;;;;;5.43;2.78;;;11.50;99.90;;;;;;4970356;29;20059;-83
2021/06/07 02:03:19;;;;;;;6.15;2.58;;;11.50;99.90;;;;;;4969201;29;20067;-84
2021/06/07 02:06:06;;;;;;;6.57;2.90;;;11.40;99.90;;;;;;4970062;29;20062;-82
2021/06/07 02:08:32;;;;;;;7.22;2.47;;;11.40;99.90;;;;;;4948130;29;20043;-84
2021/06/07 02:11:05;;;;;;;4.60;2.00;;;11.40;99.90;;;;;;4948284;29;20107;-82
2021/06/07 02:13:32;;;;;;;4.85;2.47;;;11.40;99.90;;;;;;4932365;29;20048;-83
2021/06/07 02:16:01;;;;;;;2.83;2.03;;;11.40;99.90;;;;;;4948146;29;20040;-83
2021/06/07 02:18:27;;;;;;;6.22;2.60;;;11.30;99.90;;;;;;4948148;29;20071;-79
2021/06/07 02:20:54;;;;;;;2.83;1.58;;;11.20;99.90;;;;;;4932260;29;20047;-82
2021/06/07 02:23:20;;;;;;;2.65;2.00;;;11.20;99.90;;;;;;4947875;29;20040;-82
2021/06/07 02:25:45;;;;;;;3.10;1.35;;;11.30;99.90;;;;;;4956454;29;20039;-81
2021/06/07 02:28:16;;;;;;;3.65;2.20;;;11.30;99.90;;;;;;4934799;29;20098;-82
2021/06/07 02:30:43;;;;;;;4.00;2.10;;;11.20;99.90;;;;;;4967140;29;20031;-82
2021/06/07 02:33:09;;;;;;;4.78;1.60;;;11.20;99.90;;;;;;4966878;29;20035;-82
2021/06/07 02:35:34;;;;;;;3.88;2.03;;;11.10;99.90;;;;;;4966901;29;20046;-82
2021/06/07 02:38:00;;;;;;;3.55;1.65;;;11.10;99.90;;;;;;4950525;29;20050;-79
2021/06/07 02:40:29;;;;;;;5.30;1.80;;;11.10;99.90;;;;;;4966799;29;20035;-82
2021/06/07 02:42:55;;;;;;;4.28;2.05;;;11.10;99.90;;;;;;4966722;29;20031;-81
2021/06/07 02:45:22;;;;;;;4.40;2.13;;;11.10;99.90;;;;;;4963983;29;20054;-80
2021/06/07 02:47:50;;;;;;;3.28;2.58;;;11.00;99.90;;;;;;4964204;29;20032;-82
2021/06/07 02:50:20;;;;;;;4.38;2.30;;;11.00;99.90;;;;;;4974266;28;20484;-82
2021/06/07 02:52:49;;;;;;;;;;;11.00;99.90;;;;;;4936374;29;20499;-81
2021/06/07 02:55:16;;;;;;;5.72;1.90;;;10.90;99.90;;;;;;4950815;29;19915;-81
2021/06/07 02:57:41;;;;;;;4.03;2.20;;;10.90;99.90;;;;;;4968619;29;20119;-79
2021/06/07 03:00:09;;;;;;;4.15;2.20;;;10.90;99.90;;;;;;4967699;29;20035;-80
2021/06/07 03:02:35;;;;;;;3.83;2.42;;;10.90;99.90;;;;;;4968638;29;20095;-83
2021/06/07 03:05:00;;;;;;;5.60;2.60;;;10.90;99.90;;;;;;4968650;29;20035;-82
2021/06/07 03:07:26;;;;;;;2.65;2.10;;;10.80;99.90;;;;;;4966995;29;20042;-82
2021/06/07 03:09:52;;;;;;;3.20;2.33;;;10.80;99.90;;;;;;4968316;29;20031;-80
2021/06/07 03:12:17;;;;;;;3.20;2.90;;;10.80;99.90;;;;;;4968517;29;20038;-79
2021/06/07 03:14:43;;;;;;;4.22;3.42;;;10.80;99.90;;;;;;4967292;29;20047;-81
2021/06/07 03:17:09;;;;;;;5.13;3.35;;;10.80;99.90;;;;;;4968145;29;20035;-82
2021/06/07 03:19:35;;;;;;;5.50;3.95;;;10.80;99.90;;;;;;4968385;29;20404;-81
2021/06/07 03:22:01;;;;;;;6.47;4.18;;;10.80;99.90;;;;;;4968278;29;20034;-82
2021/06/07 03:24:27;;;;;;;6.00;3.22;;;10.80;99.90;;;;;;4966965;29;20496;-82
2021/06/07 03:26:52;;;;;;;4.88;3.45;;;10.70;99.90;;;;;;4950689;29;20039;-80
2021/06/07 03:29:18;;;;;;;3.55;2.83;;;10.70;99.90;;;;;;4983049;28;20035;-81
2021/06/07 03:31:44;;;;;;;6.03;4.10;;;10.70;99.90;;;;;;4966998;29;20031;-83
2021/06/07 03:34:09;;;;;;;5.93;3.17;;;10.70;99.90;;;;;;4967428;28;20042;-83
2021/06/07 03:36:35;;;;;;;6.38;2.90;;;10.70;99.90;;;;;;4966780;29;20050;-82
2021/06/07 03:39:01;;;;;;;4.25;3.10;;;10.70;99.90;;;;;;4967578;29;20035;-83
2021/06/07 03:41:26;;;;;;;5.57;3.58;;;10.70;99.90;;;;;;4966375;29;20038;-82
2021/06/07 03:43:52;;;;;;;7.25;3.58;;;10.70;99.90;;;;;;4967502;28;20027;-83
2021/06/07 03:46:17;;;;;;;4.75;3.15;;;10.70;99.90;;;;;;4967650;28;20038;-83
2021/06/07 03:48:43;;;;;;;3.72;3.13;;;10.80;99.90;;;;;;4965884;29;20134;-83
2021/06/07 03:51:09;;;;;;;4.03;2.15;;;10.70;99.90;;;;;;4982294;28;20042;-82
2021/06/07 03:53:34;;;;;;;4.30;3.22;;;10.80;99.90;;;;;;4966009;29;20095;-82
2021/06/07 03:56:00;;;;;;;5.53;3.50;;;10.80;99.90;;;;;;4965785;29;20613;-83
2021/06/07 03:58:27;;;;;;;5.13;2.80;;;10.90;99.90;;;;;;4967238;29;20035;-82
2021/06/07 04:00:53;;;;;;;4.43;2.70;;;10.90;99.90;;;;;;4966988;29;20039;-83
2021/06/07 04:03:18;;;;;;;3.88;2.38;;;10.80;99.90;;;;;;4967021;29;20083;-83
2021/06/07 04:06:04;;;;;;;3.67;2.92;;;10.90;99.90;;;;;;4949853;29;20046;-83
2021/06/07 04:08:31;;;;;;;6.97;3.03;;;10.90;99.90;;;;;;4964512;29;20043;-82
2021/06/07 04:10:56;;;;;;;3.42;2.55;;;10.90;99.90;;;;;;4964603;29;20070;-83
2021/06/07 04:13:22;;;;;;;3.88;2.25;;;11.00;99.90;;;;;;4932697;29;20043;-84
2021/06/07 04:15:48;;;;;;;4.15;2.60;;;11.00;99.90;;;;;;4964841;29;20043;-83
2021/06/07 04:18:13;;;;;;;3.63;2.70;;;11.00;99.90;;;;;;4964499;29;20027;-82
2021/06/07 04:20:39;;;;;;;3.40;2.00;;;11.10;99.90;;;;;;4964745;29;20456;-82
2021/06/07 04:23:06;;;;;;;5.32;2.72;;;11.10;99.90;;;;;;4948456;29;20043;-83
2021/06/07 04:25:31;;;;;;;4.70;2.88;;;11.20;99.90;;;;;;4964879;29;20422;-81
2021/06/07 04:27:59;;;;;;;7.07;3.25;;;11.30;99.90;;;;;;4964373;29;20111;-83
2021/06/07 04:30:26;;;;;;;3.88;2.30;;;11.30;99.90;;;;;;4964638;29;20070;-83
2021/06/07 04:32:56;;;;;;;5.38;2.78;;;11.40;99.90;;;;;;4964489;29;20042;-84
2021/06/07 04:35:22;;;;;;;7.38;3.75;;;11.50;99.90;;;;;;4964545;29;20079;-83
2021/06/07 04:37:53;;;;;;;5.63;3.25;;;11.50;99.90;;;;;;4964128;29;20066;-83
2021/06/07 04:40:22;;;;;;;8.20;3.85;;;11.60;99.90;;;;;;4948370;29;20043;-82
2021/06/07 04:42:48;;;;;;;5.40;3.97;;;11.80;99.90;;;;;;4964385;29;20043;-82
2021/06/07 04:45:15;;;;;;;4.43;3.00;;;11.90;99.90;;;;;;4962678;29;20040;-82
2021/06/07 04:47:41;;;;;;;6.10;4.13;;;12.00;99.90;;;;;;4981269;28;20042;-82
2021/06/07 04:50:08;;;;;;;3.95;2.63;;;12.10;99.90;;;;;;4966240;28;20051;-82
2021/06/07 04:52:35;;;;;;;6.20;3.45;;;12.20;99.90;;;;;;4965500;29;20038;-83
2021/06/07 04:55:02;;;;;;;5.13;3.53;;;12.30;99.90;;;;;;4966627;29;20043;-81
2021/06/07 04:57:28;;;;;;;4.97;3.70;;;12.40;99.90;;;;;;4966310;29;20039;-82
2021/06/07 04:59:53;;;;;;;4.28;1.85;;;12.30;99.90;;;;;;4964919;29;20023;-82
2021/06/07 05:02:19;;;;;;;4.43;3.38;;;12.20;99.90;;;;;;4965255;29;20487;-82
2021/06/07 05:04:44;;;;;;;6.40;3.25;;;12.20;99.90;;;;;;4981300;28;20031;-82
2021/06/07 05:07:10;;;;;;;3.15;1.33;;;12.20;99.90;;;;;;4949106;29;20068;-82
2021/06/07 05:09:35;;;;;;;5.63;3.30;;;12.20;99.90;;;;;;4964836;29;20071;-81
2021/06/07 05:12:05;;;;;;;6.47;4.00;;;12.20;99.90;;;;;;4949223;29;20130;-82
2021/06/07 05:14:30;;;;;;;4.90;4.25;;;12.20;99.90;;;;;;4966365;29;20051;-81
2021/06/07 05:16:56;;;;;;;5.75;3.72;;;12.20;99.90;;;;;;4964770;29;20043;-82
2021/06/07 05:19:21;;;;;;;5.03;3.15;;;12.20;99.90;;;;;;4966871;28;20130;-82
2021/06/07 05:21:47;;;;;;;4.38;2.28;;;12.20;99.90;;;;;;4951797;29;20122;-81
2021/06/07 05:24:13;;;;;;;3.90;2.17;;;12.20;99.90;;;;;;4968082;29;20108;-82
2021/06/07 05:26:38;;;;;;;4.95;2.08;;;12.30;99.90;;;;;;4969327;29;20035;-82
2021/06/07 05:29:04;;;;;;;3.88;2.47;;;12.40;99.90;;;;;;4967675;29;20103;-81
2021/06/07 05:31:30;;;;;;;2.35;1.48;;;12.50;99.90;;;;;;4969313;29;20032;-82
2021/06/07 05:33:55;;;;;;;6.13;3.50;;;12.60;99.90;;;;;;4984500;28;20035;-82
2021/06/07 05:36:21;;;;;;;5.05;2.50;;;12.70;99.90;;;;;;4969568;29;20046;-82
2021/06/07 05:38:47;;;;;;;3.00;2.40;;;13.20;99.90;;;;;;4968315;29;20111;-81
2021/06/07 05:41:12;;;;;;;6.25;2.78;;;13.30;99.90;;;;;;4984480;28;20106;-82
2021/06/07 05:43:38;;;;;;;4.82;2.92;;;13.50;99.90;;;;;;4984377;28;20415;-83
2021/06/07 05:46:03;;;;;;;4.03;2.25;;;13.70;99.90;;;;;;4969410;29;20059;-82
2021/06/07 05:48:29;;;;;;;3.10;2.47;;;13.80;99.90;;;;;;4969222;29;20046;-83
2021/06/07 05:50:55;;;;;;;2.20;0.88;;;14.10;99.90;;;;;;4969241;29;20039;-83
2021/06/07 05:53:21;;;;;;;3.92;1.63;;;14.30;99.90;;;;;;4969391;29;20042;-83
2021/06/07 05:55:46;;;;;;;4.57;1.80;;;14.30;99.90;;;;;;4967665;29;20043;-83
2021/06/07 05:58:21;;;;;;;2.13;1.30;;;14.50;99.90;;;;;;4967995;29;20100;-83
2021/06/07 06:00:49;;;;;;;2.30;1.10;;;14.60;99.90;;;;;;4969669;29;20095;-83
2021/06/07 06:03:17;;;;;;;2.97;1.20;;;14.70;99.90;;;;;;4984582;28;20062;-84
2021/06/07 06:06:03;;;;;;;3.13;1.15;;;14.60;99.90;;;;;;4969455;29;20035;-83
2021/06/07 06:08:29;;;;;;;2.83;1.35;;;14.60;99.90;;;;;;4948010;29;20044;-84
2021/06/07 06:10:54;;;;;;;2.00;1.20;;;14.70;99.90;;;;;;4948048;29;20047;-83
2021/06/07 06:13:20;;;;;;;3.97;1.20;;;15.00;99.90;;;;;;4948001;29;20061;-81
2021/06/07 06:15:46;;;;;;;3.30;1.50;;;15.10;99.90;;;;;;4932175;29;20051;-84
2021/06/07 06:18:11;;;;;;;2.70;1.00;;;14.90;99.90;;;;;;4948077;29;20079;-83
2021/06/07 06:20:37;;;;;;;3.83;1.30;;;15.10;99.90;;;;;;4948038;29;20075;-84
2021/06/07 06:23:03;;;;;;;1.60;0.80;;;15.10;99.90;;;;;;4947977;29;20040;-82
2021/06/07 06:25:29;;;;;;;2.58;1.77;;;15.30;99.90;;;;;;4921895;29;20039;-81
2021/06/07 06:27:55;;;;;;;2.65;0.88;;;15.10;99.90;;;;;;4966839;29;20031;-82
2021/06/07 06:30:24;;;;;;;2.78;0.80;;;15.40;99.90;;;;;;4965676;28;20499;-83
2021/06/07 06:32:58;;;;;;;1.70;1.00;;;15.60;99.90;;;;;;4966906;29;20558;-83
2021/06/07 06:35:24;;;;;;;3.78;0.98;;;15.80;99.90;;;;;;4966914;29;20035;-84
2021/06/07 06:37:50;;;;;;;2.53;0.52;;;16.00;99.90;;;;;;4966631;29;20031;-84
2021/06/07 06:40:30;;;;;;;1.65;0.43;;;16.50;99.90;;;;;;4950041;29;20039;-83
2021/06/07 06:42:57;;;;;;;2.88;0.70;;;16.60;99.90;;;;;;4965956;29;20035;-85
2021/06/07 06:45:23;;;;;;;2.60;0.80;;;16.80;99.90;;;;;;4958987;29;20035;-87
2021/06/07 06:47:55;;;;;;;2.00;0.60;;;16.50;99.90;;;;;;4964402;29;20058;-85
2021/06/07 06:50:22;;;;;;;2.85;0.73;;;16.90;99.90;;;;;;4958424;29;20062;-83
2021/06/07 06:52:47;;;;;;;1.75;0.82;;;16.60;99.90;;;;;;4967215;29;20039;-84
2021/06/07 06:55:13;;;;;;;2.42;0.70;;;16.50;99.90;;;;;;4966653;28;20042;-83
2021/06/07 06:57:39;;;;;;;2.25;0.60;;;16.80;99.90;;;;;;4966799;29;20110;-84
2021/06/07 07:00:09;;;;;;;4.38;0.95;;;16.80;99.90;;;;;;4966571;29;20031;-83
2021/06/07 07:02:35;;;;;;;3.58;0.50;;;16.80;99.90;;;;;;4983049;28;20035;-83
2021/06/07 07:05:02;;;;;;;1.95;0.70;;;17.00;99.90;;;;;;4966817;28;20396;-83
2021/06/07 07:07:27;;;;;;;5.95;0.88;;;17.10;99.90;;;;;;4966385;29;20033;-84
2021/06/07 07:09:53;;;;;;;2.17;0.60;;;17.00;99.90;;;;;;4966219;29;20027;-81
2021/06/07 07:12:23;;;;;;;1.67;0.40;;;17.50;99.90;;;;;;4965604;28;20050;-83
2021/06/07 07:14:49;;;;;;;;;;;17.60;99.90;;;;;;4982365;28;20031;-83
2021/06/07 07:17:14;;;;;;;3.05;0.80;;;17.10;99.90;;;;;;4982635;28;20003;-83
2021/06/07 07:19:41;;;;;;;4.35;1.10;;;16.90;99.90;;;;;;4966638;29;20190;-82
2021/06/07 07:22:08;;;;;;;2.65;0.75;;;16.90;99.90;;;;;;4966401;28;20035;-82
2021/06/07 07:24:34;;;;;;;3.10;0.70;;;17.70;99.90;;;;;;4967530;29;20027;-82
2021/06/07 07:27:00;;;;;;;2.85;0.70;;;17.60;99.90;;;;;;4965938;29;20039;-80
2021/06/07 07:29:26;;;;;;;1.95;0.70;;;17.30;99.90;;;;;;4967199;28;20035;-81
2021/06/07 07:31:52;;;;;;;2.22;0.70;;;17.50;99.90;;;;;;4982285;28;20043;-81
2021/06/07 07:34:17;;;;;;;1.90;0.40;;;17.40;99.90;;;;;;4967660;28;20029;-82
2021/06/07 07:36:43;;;;;;;1.90;0.60;;;18.10;99.90;;;;;;4967242;29;20100;-80
2021/06/07 07:39:09;;;;;;;1.38;0.68;;;18.20;99.90;;;;;;4967563;29;20023;-81
2021/06/07 07:41:35;;;;;;;2.10;0.50;;;17.80;99.90;;;;;;4949875;28;20039;-81
2021/06/07 07:44:00;;;;;;;1.13;0.50;;;17.90;99.90;;;;;;4965970;29;20042;-82
2021/06/07 07:46:26;;;;;;;1.40;0.50;;;18.40;99.90;;;;;;4965864;29;20039;-81
2021/06/07 07:48:52;;;;;;;2.15;0.70;;;18.40;99.90;;;;;;4965543;29;20039;-80
2021/06/07 07:51:17;;;;;;;3.13;0.50;;;18.10;99.90;;;;;;4981787;28;20487;-80
2021/06/07 07:53:43;;;;;;;2.10;0.60;;;18.40;99.90;;;;;;4967171;29;20037;-82
2021/06/07 07:56:09;;;;;;;1.48;0.73;;;18.30;99.90;;;;;;4965625;29;20047;-81
2021/06/07 07:58:35;;;;;;;1.40;0.45;;;19.10;99.90;;;;;;4965886;29;20117;-82
2021/06/07 08:01:00;;;;;;;1.98;0.55;;;19.10;99.90;;;;;;4965779;29;20047;-82
2021/06/07 08:03:26;;;;;;;1.63;0.47;;;18.50;99.90;;;;;;4965748;28;20082;-81
2021/06/07 08:05:52;;;;;;;1.15;0.40;;;18.70;99.90;;;;;;4965625;29;20039;-81
2021/06/07 08:08:17;;;;;;;1.20;0.50;;;19.00;99.90;;;;;;4965409;29;20058;-81
2021/06/07 08:10:43;;;;;;;1.05;0.40;;;19.20;99.90;;;;;;4965461;28;20044;-81
2021/06/07 08:13:09;;;;;;;1.77;0.40;;;19.80;99.90;;;;;;4965319;28;20027;-82
2021/06/07 08:15:34;;;;;;;0.75;0.40;;;19.60;99.90;;;;;;4965336;29;20043;-81
2021/06/07 08:18:01;;;;;;;1.30;0.40;;;19.60;99.90;;;;;;4981437;28;20031;-81
2021/06/07 08:20:27;;;;;;;2.63;0.50;;;19.60;99.90;;;;;;4966779;29;20031;-81
2021/06/07 08:22:55;;;;;;;2.17;0.50;;;19.60;99.90;;;;;;4965426;29;20034;-80
2021/06/07 08:25:22;;;;;;;0.68;0.30;;;19.60;99.90;;;;;;4965488;29;20045;-82
2021/06/07 08:27:48;;;;;;;4.20;0.60;;;19.60;99.90;;;;;;4981416;28;20051;-82
2021/06/07 08:30:15;;;;;;;3.75;0.50;;;19.00;99.90;;;;;;4965361;29;20077;-82
2021/06/07 08:32:41;;;;;;;1.55;0.50;;;19.00;99.90;;;;;;4966620;28;20035;-82
2021/06/07 08:35:09;;;;;;;1.83;0.50;;;19.10;99.90;;;;;;4981432;28;20046;-82
2021/06/07 08:37:35;;;;;;;1.83;0.40;;;19.20;99.90;;;;;;4966603;28;20500;-82
2021/06/07 08:40:02;;;;;;;1.65;0.50;;;19.40;99.90;;;;;;4965582;29;20266;-81
2021/06/07 08:42:28;;;;;;;1.55;0.50;;;19.00;99.90;;;;;;4981426;28;20038;-81
2021/06/07 08:44:54;;;;;;;3.13;0.50;;;19.20;99.90;;;;;;4965525;29;20031;-83
2021/06/07 08:47:20;;;;;;;1.33;0.40;;;19.20;99.90;;;;;;4965311;29;20027;-82
2021/06/07 08:49:46;;;;;;;4.32;0.65;;;19.10;99.90;;;;;;4965299;28;20073;-82
2021/06/07 08:52:14;;;;;;;1.30;0.40;;;19.10;99.90;;;;;;4965214;28;20058;-82
2021/06/07 08:54:39;;;;;;;0.75;0.30;;;19.80;99.90;;;;;;4970154;28;20035;-83
2021/06/07 08:57:05;;;;;;;0.98;0.22;;;20.40;99.90;;;;;;4985638;28;20103;-82
2021/06/07 08:59:31;;;;;;;2.28;0.70;;;20.60;99.90;;;;;;4969285;29;20151;-83
2021/06/07 09:02:01;;;;;;;3.42;0.40;;;20.20;99.90;;;;;;4970324;28;20039;-84
2021/06/07 09:04:27;;;;;;;2.22;0.50;;;20.00;99.90;;;;;;4969088;29;20058;-82
2021/06/07 09:06:53;;;;;;;1.15;0.30;;;19.80;99.90;;;;;;4968746;29;20039;-82
2021/06/07 09:09:24;;;;;;;1.25;0.40;;;20.00;99.90;;;;;;4968695;29;20058;-82
2021/06/07 09:11:59;;;;;;;1.70;0.40;;;20.30;99.90;;;;;;4968800;28;20054;-82
2021/06/07 09:14:31;;;;;;;1.13;0.40;;;20.40;99.90;;;;;;4969948;28;20038;-82
2021/06/07 09:16:57;;;;;;;1.60;0.50;;;20.20;99.90;;;;;;4968640;29;20051;-83
2021/06/07 09:19:32;;;;;;;3.72;0.50;;;19.70;99.90;;;;;;4968495;29;20042;-82
2021/06/07 09:22:22;;;;;;;1.02;0.28;;;19.90;99.90;;;;;;4968771;29;20088;-82
2021/06/07 09:25:09;;;;;;;1.75;0.30;;;21.10;99.90;;;;;;4968834;29;20086;-84
2021/06/07 09:27:36;;;;;;;1.15;0.30;;;21.40;99.90;;;;;;4968361;29;20035;-83
2021/06/07 09:30:37;;;;;;;0.98;0.47;;;21.20;99.90;;;;;;4968378;29;20031;-83
2021/06/07 09:33:21;;;;;;;0.93;0.20;;;21.50;99.90;;;;;;4968483;29;20102;-82
2021/06/07 09:36:06;;;;;;;1.85;0.40;;;21.60;99.90;;;;;;4968538;29;20065;-82
2021/06/07 09:38:32;;;;;;;1.00;0.20;;;21.50;99.90;;;;;;4969855;29;20035;-84
2021/06/07 09:41:03;;;;;;;0.98;0.30;;;21.50;99.90;;;;;;4968529;29;20476;-83
2021/06/07 09:43:55;;;;;;;3.05;0.30;;;20.90;99.90;;;;;;4968463;29;20031;-82
2021/06/07 09:46:27;;;;;;;1.30;0.20;;;21.10;99.90;;;;;;4968398;29;20042;-83
2021/06/07 09:49:13;;;;;;;1.42;0.30;;;21.10;99.90;;;;;;4968010;29;20043;-83
2021/06/07 09:51:51;;;;;;;0.85;0.30;;;21.00;99.90;;;;;;4949266;29;20465;-82
2021/06/07 09:54:16;;;;;;;1.40;0.50;;;20.90;99.90;;;;;;4948983;29;20054;-81
2021/06/07 09:56:57;;;;;;;0.85;0.22;;;21.20;99.90;;;;;;4950029;29;20488;-82
2021/06/07 09:59:28;;;;;;;4.97;0.50;;;21.30;99.90;;;;;;4950096;29;20067;-83
2021/06/07 10:01:56;;;;;;;2.10;0.30;;;20.70;99.90;;;;;;4949005;29;20032;-84
2021/06/07 10:04:22;;;;;;;1.48;0.20;;;20.70;99.90;;;;;;4949681;29;20091;-82
2021/06/07 10:06:47;;;;;;;1.45;0.30;;;21.50;99.90;;;;;;4949746;29;20116;-82
2021/06/07 10:09:18;;;;;;;0.60;0.20;;;21.60;99.90;;;;;;4948469;29;20039;-82
2021/06/07 10:11:45;;;;;;;1.08;0.40;;;21.40;99.90;;;;;;4964605;29;20024;-83
2021/06/07 10:14:15;;;;;;;1.35;0.20;;;21.00;99.90;;;;;;4964704;29;20044;-83
2021/06/07 10:17:01;;;;;;;1.15;0.28;;;21.60;99.90;;;;;;4948413;29;20051;-81
2021/06/07 10:19:41;;;;;;;3.30;0.30;;;21.20;99.90;;;;;;4949722;29;20175;-82
2021/06/07 10:22:07;;;;;;;;;;;21.20;99.90;;;;;;4949008;29;20050;-83
2021/06/07 10:24:33;;;;;;;1.70;0.10;;;21.40;99.90;;;;;;4964456;29;19910;-83
2021/06/07 10:26:59;;;;;;;0.45;0.20;;;21.70;99.90;;;;;;4966371;29;20043;-82
2021/06/07 10:29:34;;;;;;;1.02;0.20;;;22.10;99.90;;;;;;4967417;29;20031;-83
2021/06/07 10:32:21;;;;;;;1.10;0.30;;;22.50;99.90;;;;;;4967390;29;20035;-82
2021/06/07 10:34:59;;;;;;;1.17;0.30;;;21.90;99.90;;;;;;4968670;29;20031;-83
2021/06/07 10:37:27;;;;;;;1.45;0.20;;;21.60;99.90;;;;;;4967482;29;20354;-84
2021/06/07 10:40:13;;;;;;;1.58;0.20;;;21.80;99.90;;;;;;4968587;28;20404;-82
2021/06/07 10:42:59;;;;;;;1.23;0.30;;;22.20;99.90;;;;;;4983539;28;20046;-83
2021/06/07 10:45:28;;;;;;;0.47;0.20;;;22.30;99.90;;;;;;4967115;29;20460;-82
2021/06/07 10:47:54;;;;;;;1.45;0.50;;;22.90;99.90;;;;;;4968465;28;20067;-83
2021/06/07 10:50:25;;;;;;;1.23;0.40;;;22.70;99.90;;;;;;4966972;29;20047;-82
2021/06/07 10:52:58;;;;;;;0.93;0.30;;;22.20;99.90;;;;;;4968489;29;20382;-83
2021/06/07 10:55:27;;;;;;;1.35;0.40;;;22.80;99.90;;;;;;4968337;29;20126;-83
2021/06/07 10:58:01;;;;;;;0.85;0.30;;;22.70;99.90;;;;;;4968221;29;20090;-84
2021/06/07 11:00:46;;;;;;;1.83;0.30;;;22.00;99.90;;;;;;4968149;29;20051;-83
2021/06/07 11:03:23;;;;;;;0.75;0.30;;;22.30;99.90;;;;;;4983198;28;20027;-83
2021/06/07 11:06:10;;;;;;;2.05;0.40;;;22.00;99.90;;;;;;4966729;29;20059;-83
2021/06/07 11:08:37;;;;;;;1.98;0.40;;;21.80;99.90;;;;;;4933607;29;20063;-83
2021/06/07 11:11:14;;;;;;;2.20;0.40;;;21.90;99.90;;;;;;4965456;29;20059;-82
2021/06/07 11:13:47;;;;;;;2.30;0.30;;;22.50;99.90;;;;;;4949437;29;20058;-83
2021/06/07 11:16:31;;;;;;;0.80;0.25;;;22.40;99.90;;;;;;4964876;28;20085;-83
2021/06/07 11:18:58;;;;;;;0.60;0.20;;;22.90;99.90;;;;;;4965616;29;20046;-84
2021/06/07 11:21:35;;;;;;;0.50;0.20;;;22.90;99.90;;;;;;4965442;29;20055;-84
2021/06/07 11:24:02;;;;;;;1.88;0.50;;;23.00;99.90;;;;;;4965461;29;20047;-83
2021/06/07 11:26:40;;;;;;;1.13;0.30;;;22.50;99.90;;;;;;4965189;29;20048;-83
2021/06/07 11:29:08;;;;;;;1.55;0.30;;;22.50;99.90;;;;;;4965333;29;20038;-83
2021/06/07 11:31:34;;;;;;;1.35;0.30;;;22.90;99.90;;;;;;4948983;29;20050;-82
2021/06/07 11:34:05;;;;;;;1.30;0.35;;;23.60;99.90;;;;;;4941866;29;20040;-83
2021/06/07 11:36:48;;;;;;;1.30;0.30;;;22.90;99.90;;;;;;4960458;29;20044;-82
2021/06/07 11:39:15;;;;;;;1.00;0.30;;;23.30;99.90;;;;;;4945717;29;20047;-84
2021/06/07 11:41:58;;;;;;;1.33;0.40;;;23.30;99.90;;;;;;4945891;29;20042;-82
2021/06/07 11:44:42;;;;;;;0.90;0.30;;;22.60;99.90;;;;;;4945646;29;20135;-82
2021/06/07 11:47:09;;;;;;;0.82;0.30;;;23.10;99.90;;;;;;4962790;29;20027;-85
2021/06/07 11:49:36;;;;;;;0.50;0.20;;;23.30;99.90;;;;;;4967137;28;20042;-85
2021/06/07 11:52:08;;;;;;;1.77;0.20;;;23.30;99.00;;;;;;4966890;29;20031;-83
2021/06/07 11:54:34;;;;;;;1.00;0.22;;;23.50;99.90;;;;;;4966904;29;20059;-83
2021/06/07 11:57:07;;;;;;;1.08;0.30;;;23.60;99.30;;;;;;4966271;29;20047;-84
2021/06/07 11:59:35;;;;;;;1.95;0.55;;;23.40;99.30;;;;;;4982286;28;20035;-83
2021/06/07 12:02:08;;;;;;;2.28;0.40;;;22.40;99.90;;;;;;4967036;29;20031;-84
2021/06/07 12:04:33;;;;;;;0.50;0.20;;;23.20;99.90;;;;;;4981970;28;20031;-85
2021/06/07 12:07:04;;;;;;;0.70;0.30;;;24.10;99.90;;;;;;4965435;29;20031;-84
2021/06/07 12:09:31;;;;;;;0.47;0.20;;;24.20;99.90;;;;;;4967082;29;20038;-83
2021/06/07 12:11:57;;;;;;;1.10;0.20;;;23.70;99.90;;;;;;4965416;29;20055;-84
2021/06/07 12:14:27;;;;;;;1.58;0.52;;;24.30;99.70;;;;;;4965126;29;20042;-82
2021/06/07 12:16:53;;;;;;;1.13;0.30;;;24.30;98.70;;;;;;4966470;29;20046;-83
2021/06/07 12:19:29;;;;;;;0.98;0.20;;;23.50;98.80;;;;;;4966882;28;20019;-82
2021/06/07 12:21:56;;;;;;;1.30;0.40;;;23.50;99.30;;;;;;4966695;29;20055;-83
2021/06/07 12:24:23;;;;;;;1.60;0.50;;;23.10;99.90;;;;;;4965620;29;20504;-83
2021/06/07 12:29:35;;;;;;;1.52;0.30;;;22.80;97.90;;;;;;4966219;29;20027;-82
2021/06/07 12:32:13;;;;;;;1.10;0.20;;;23.40;99.20;;;;;;4966802;28;20035;-83
2021/06/07 12:35:00;;;;;;;0.77;0.30;;;24.10;99.50;;;;;;4981635;28;20035;-83
2021/06/07 12:37:27;;;;;;;2.25;0.30;;;24.00;99.90;;;;;;4966139;29;20070;-82
2021/06/07 12:40:25;;;;;;;1.60;0.40;;;23.30;99.70;;;;;;4966535;29;20023;-82
2021/06/07 12:42:57;;;;;;;1.60;0.60;;;23.20;99.90;;;;;;4966707;29;20104;-82
2021/06/07 12:45:32;;;;;;;1.48;0.40;;;22.70;99.20;;;;;;4964704;28;20031;-83
2021/06/07 12:48:09;;;;;;;1.33;0.40;;;22.60;99.90;;;;;;4966662;28;20050;-83
2021/06/07 12:50:35;;;;;;;2.38;0.47;;;22.90;99.90;;;;;;4966651;28;20102;-83
2021/06/07 12:53:01;;;;;;;3.55;0.50;;;23.20;99.90;;;;;;4966538;29;20408;-82
2021/06/07 12:55:31;;;;;;;2.92;0.40;;;22.90;99.90;;;;;;4966569;29;20046;-84
2021/06/07 12:57:57;;;;;;;0.60;0.20;;;23.50;99.90;;;;;;4966509;29;20047;-84
2021/06/07 13:00:28;;;;;;;0.60;0.20;;;23.80;99.00;;;;;;4966573;29;20031;-82